createdAt,value
2018-05-15T00:01:46.570Z,0.00
2018-05-15T00:02:46.578Z,0.00
2018-05-15T00:04:39.529Z,0.00
2018-05-15T00:05:39.532Z,0.00
2018-05-15T00:07:32.483Z,0.00
2018-05-15T00:08:32.477Z,0.00
2018-05-15T00:10:25.406Z,0.00
2018-05-15T00:11:25.421Z,0.00
2018-05-15T00:13:18.380Z,0.00
2018-05-15T00:14:18.374Z,0.00
2018-05-15T00:16:11.307Z,0.00
2018-05-15T00:17:11.325Z,0.00
2018-05-15T00:19:04.282Z,0.00
2018-05-15T00:20:04.284Z,0.00
2018-05-15T00:21:58.171Z,0.00
2018-05-15T00:22:57.220Z,0.00
2018-05-15T00:24:50.187Z,0.00
2018-05-15T00:25:50.177Z,0.00
2018-05-15T00:27:43.187Z,0.00
2018-05-15T00:28:43.189Z,0.00
2018-05-15T00:30:36.129Z,0.00
2018-05-15T00:31:36.139Z,0.00
2018-05-15T00:33:29.104Z,0.00
2018-05-15T00:34:29.090Z,0.00
2018-05-15T00:36:22.020Z,0.00
2018-05-15T00:37:22.034Z,0.00
2018-05-15T00:39:14.993Z,0.00
2018-05-15T00:40:14.989Z,0.00
2018-05-15T00:42:07.915Z,0.00
2018-05-15T00:43:07.932Z,0.00
2018-05-15T00:45:00.905Z,0.00
2018-05-15T00:46:00.888Z,0.00
2018-05-15T00:47:53.840Z,0.00
2018-05-15T00:48:53.825Z,0.00
2018-05-15T00:50:46.774Z,0.00
2018-05-15T00:51:46.773Z,0.00
2018-05-15T00:53:39.725Z,0.00
2018-05-15T00:54:39.721Z,0.00
2018-05-15T00:56:32.659Z,0.00
2018-05-15T00:57:32.670Z,0.00
2018-05-15T00:59:25.628Z,0.00
2018-05-15T01:00:25.613Z,0.00
2018-05-15T01:02:18.548Z,0.00
2018-05-15T01:03:18.561Z,0.00
2018-05-15T01:05:11.515Z,0.00
2018-05-15T01:06:11.509Z,0.00
2018-05-15T01:08:04.461Z,0.00
2018-05-15T01:09:04.457Z,0.00
2018-05-15T01:10:57.418Z,0.00
2018-05-15T01:11:57.413Z,0.00
2018-05-15T01:13:51.358Z,0.00
2018-05-15T01:14:51.353Z,0.00
2018-05-15T01:16:44.304Z,0.00
2018-05-15T01:17:44.302Z,0.00
2018-05-15T01:19:37.253Z,0.00
2018-05-15T01:20:38.189Z,0.00
2018-05-15T01:22:30.180Z,0.00
2018-05-15T01:23:30.203Z,0.00
2018-05-15T01:25:23.148Z,0.00
2018-05-15T01:26:23.142Z,0.00
2018-05-15T01:28:16.093Z,0.00
2018-05-15T01:29:16.090Z,0.00
2018-05-15T01:31:09.039Z,0.00
2018-05-15T01:32:09.032Z,0.00
2018-05-15T01:34:01.993Z,0.00
2018-05-15T01:35:01.984Z,0.00
2018-05-15T01:36:54.929Z,0.00
2018-05-15T01:37:54.929Z,0.00
2018-05-15T01:39:47.878Z,0.00
2018-05-15T01:40:47.873Z,0.00
2018-05-15T01:42:40.808Z,0.00
2018-05-15T01:43:40.817Z,0.00
2018-05-15T01:45:33.778Z,0.00
2018-05-15T01:46:33.769Z,0.00
2018-05-15T03:48:09.279Z,5.63
2018-05-15T03:49:09.264Z,5.63
2018-05-15T03:51:02.197Z,5.63
2018-05-15T03:52:02.186Z,5.63
2018-05-15T03:53:55.105Z,5.63
2018-05-15T03:54:55.114Z,11.25
2018-05-15T03:56:48.052Z,11.25
2018-05-15T03:57:48.041Z,11.25
2018-05-15T03:59:40.965Z,11.25
2018-05-15T04:00:40.972Z,11.25
2018-05-15T04:02:33.917Z,16.88
2018-05-15T04:03:33.912Z,16.88
2018-05-15T04:05:26.852Z,16.88
2018-05-15T04:06:26.847Z,16.88
2018-05-15T04:08:19.777Z,22.50
2018-05-15T04:09:19.786Z,22.50
2018-05-15T04:11:12.824Z,22.50
2018-05-15T04:12:12.727Z,33.75
2018-05-15T04:14:05.661Z,28.13
2018-05-15T04:15:05.670Z,28.13
2018-05-15T04:16:58.621Z,28.13
2018-05-15T04:17:58.615Z,28.13
2018-05-15T04:19:51.545Z,28.13
2018-05-15T04:20:51.552Z,33.75
2018-05-15T04:22:44.500Z,33.75
2018-05-15T04:23:44.495Z,33.75
2018-05-15T04:25:37.439Z,50.63
2018-05-15T04:26:37.437Z,67.50
2018-05-15T04:28:30.376Z,39.38
2018-05-15T04:29:30.376Z,39.38
2018-05-15T04:31:23.335Z,45.00
2018-05-15T04:32:23.320Z,45.00
2018-05-15T04:34:16.254Z,45.00
2018-05-15T04:35:16.279Z,45.00
2018-05-15T04:37:09.220Z,50.63
2018-05-15T04:38:09.213Z,50.63
2018-05-15T04:40:02.148Z,56.25
2018-05-15T04:41:02.156Z,61.88
2018-05-15T04:42:55.100Z,73.13
2018-05-15T04:43:55.144Z,123.75
2018-05-15T04:45:48.051Z,163.13
2018-05-15T04:46:48.055Z,140.63
2018-05-15T04:48:40.974Z,67.50
2018-05-15T04:49:40.991Z,61.88
2018-05-15T04:51:33.936Z,67.50
2018-05-15T04:52:33.932Z,67.50
2018-05-15T04:54:26.868Z,129.38
2018-05-15T04:55:26.888Z,101.25
2018-05-15T04:57:19.835Z,67.50
2018-05-15T04:58:19.820Z,67.50
2018-05-15T05:00:12.753Z,78.75
2018-05-15T05:01:12.767Z,101.25
2018-05-15T05:03:05.723Z,78.75
2018-05-15T05:04:05.718Z,73.13
2018-05-15T05:05:58.664Z,73.13
2018-05-15T05:06:58.659Z,73.13
2018-05-15T05:08:51.594Z,73.13
2018-05-15T05:09:51.604Z,78.75
2018-05-15T05:11:44.565Z,78.75
2018-05-15T05:12:44.549Z,78.75
2018-05-15T05:14:37.484Z,78.75
2018-05-15T05:15:37.507Z,84.38
2018-05-15T05:17:30.453Z,84.38
2018-05-15T05:18:30.454Z,84.38
2018-05-15T05:20:23.388Z,90.00
2018-05-15T05:21:23.410Z,90.00
2018-05-15T05:23:16.351Z,90.00
2018-05-15T05:24:16.345Z,95.63
2018-05-15T05:26:09.297Z,101.25
2018-05-15T05:27:09.381Z,101.25
2018-05-15T05:29:02.224Z,95.63
2018-05-15T05:30:02.238Z,101.25
2018-05-15T05:31:55.233Z,101.25
2018-05-15T05:32:55.220Z,106.88
2018-05-15T05:34:48.154Z,118.13
2018-05-15T05:35:48.169Z,106.88
2018-05-15T05:37:41.122Z,163.13
2018-05-15T05:38:41.118Z,146.25
2018-05-15T05:40:34.063Z,309.38
2018-05-15T05:41:34.067Z,725.63
2018-05-15T05:43:27.020Z,950.63
2018-05-15T05:44:27.015Z,945.00
2018-05-15T05:46:20.048Z,933.75
2018-05-15T05:47:19.969Z,922.50
2018-05-15T05:49:13.416Z,911.25
2018-05-15T05:50:13.416Z,911.25
2018-05-15T05:52:06.486Z,877.50
2018-05-15T05:53:06.380Z,877.50
2018-05-15T05:54:59.328Z,815.63
2018-05-15T05:55:59.369Z,787.50
2018-05-15T05:57:52.297Z,804.38
2018-05-15T05:58:52.303Z,821.25
2018-05-15T06:00:45.254Z,810.00
2018-05-15T06:01:45.260Z,810.00
2018-05-15T06:03:38.223Z,855.00
2018-05-15T06:04:38.230Z,832.50
2018-05-15T06:06:31.219Z,843.75
2018-05-15T06:07:31.207Z,849.38
2018-05-15T06:09:24.136Z,866.25
2018-05-15T06:10:24.154Z,866.25
2018-05-15T06:12:17.247Z,877.50
2018-05-15T06:13:17.244Z,877.50
2018-05-15T06:15:10.247Z,888.75
2018-05-15T06:16:10.285Z,894.38
2018-05-15T06:18:03.324Z,877.50
2018-05-15T06:19:03.328Z,871.88
2018-05-15T06:20:56.357Z,849.38
2018-05-15T06:21:56.388Z,826.88
2018-05-15T06:23:49.306Z,742.50
2018-05-15T06:24:49.271Z,691.88
2018-05-15T06:26:42.222Z,618.75
2018-05-15T06:27:42.247Z,607.50
2018-05-15T06:29:35.221Z,585.00
2018-05-15T06:30:35.227Z,573.75
2018-05-15T06:32:28.293Z,562.50
2018-05-15T06:33:28.199Z,568.13
2018-05-15T06:35:21.158Z,556.88
2018-05-15T06:36:21.168Z,556.88
2018-05-15T06:38:14.140Z,556.88
2018-05-15T06:39:14.144Z,540.00
2018-05-15T06:41:07.096Z,540.00
2018-05-15T06:42:07.121Z,540.00
2018-05-15T06:44:00.100Z,540.00
2018-05-15T06:45:00.100Z,534.38
2018-05-15T06:46:53.055Z,528.75
2018-05-15T06:47:53.075Z,523.13
2018-05-15T06:49:46.051Z,523.13
2018-05-15T06:50:46.052Z,517.50
2018-05-15T06:52:39.028Z,511.88
2018-05-15T06:53:39.037Z,500.63
2018-05-15T06:55:31.991Z,506.25
2018-05-15T06:56:32.011Z,506.25
2018-05-15T06:58:24.989Z,495.00
2018-05-15T06:59:24.994Z,495.00
2018-05-15T07:01:17.945Z,500.63
2018-05-15T07:02:17.974Z,495.00
2018-05-15T07:04:10.943Z,489.38
2018-05-15T07:05:10.950Z,489.38
2018-05-15T07:07:03.899Z,483.75
2018-05-15T07:08:03.926Z,478.13
2018-05-15T07:09:56.894Z,472.50
2018-05-15T07:10:56.916Z,466.88
2018-05-15T07:12:49.872Z,466.88
2018-05-15T07:13:49.869Z,461.25
2018-05-15T07:15:42.826Z,455.63
2018-05-15T07:16:42.851Z,450.00
2018-05-15T07:18:35.883Z,444.38
2018-05-15T07:19:35.969Z,444.38
2018-05-15T07:21:28.921Z,438.75
2018-05-15T07:22:28.945Z,433.13
2018-05-15T07:24:22.003Z,427.50
2018-05-15T07:25:22.005Z,427.50
2018-05-15T07:27:15.049Z,427.50
2018-05-15T07:28:14.980Z,421.88
2018-05-15T07:30:07.961Z,410.63
2018-05-15T07:31:08.252Z,410.63
2018-05-15T07:33:01.110Z,405.00
2018-05-15T07:34:01.154Z,399.38
2018-05-15T07:35:54.066Z,399.38
2018-05-15T07:36:54.096Z,388.13
2018-05-15T07:38:47.141Z,382.50
2018-05-15T07:39:47.148Z,376.88
2018-05-15T07:41:40.174Z,371.25
2018-05-15T07:42:40.199Z,365.63
2018-05-15T07:44:33.178Z,365.63
2018-05-15T07:45:33.178Z,360.00
2018-05-15T07:47:26.140Z,354.38
2018-05-15T07:48:26.165Z,354.38
2018-05-15T07:50:19.171Z,348.75
2018-05-15T07:51:19.144Z,354.38
2018-05-15T07:53:12.110Z,343.13
2018-05-15T07:54:12.115Z,337.50
2018-05-15T07:56:05.060Z,326.25
2018-05-15T07:57:05.086Z,326.25
2018-05-15T07:58:58.072Z,320.63
2018-05-15T07:59:58.098Z,320.63
2018-05-15T08:01:51.022Z,315.00
2018-05-15T08:02:51.050Z,309.38
2018-05-15T08:04:44.204Z,309.38
2018-05-15T08:05:44.170Z,309.38
2018-05-15T08:07:37.162Z,309.38
2018-05-15T08:08:37.182Z,309.38
2018-05-15T08:10:30.240Z,303.75
2018-05-15T08:11:30.241Z,303.75
2018-05-15T08:13:23.291Z,208.13
2018-05-15T08:14:23.293Z,185.63
2018-05-15T08:16:16.412Z,185.63
2018-05-15T08:17:16.384Z,180.00
2018-05-15T08:19:09.402Z,185.63
2018-05-15T08:20:09.406Z,185.63
2018-05-15T08:22:02.440Z,185.63
2018-05-15T08:23:02.465Z,185.63
2018-05-15T08:24:55.514Z,191.25
2018-05-15T08:25:55.514Z,185.63
2018-05-15T08:27:48.553Z,185.63
2018-05-15T08:28:48.573Z,185.63
2018-05-15T08:30:41.626Z,185.63
2018-05-15T08:31:41.658Z,185.63
2018-05-15T08:33:34.687Z,191.25
2018-05-15T08:34:34.678Z,191.25
2018-05-15T08:36:27.714Z,191.25
2018-05-15T08:38:45.220Z,191.25
